createdAt,value
2023-02-21T00:00:08.338Z,37.50
2023-02-21T00:00:39.739Z,37.25
2023-02-21T00:01:11.154Z,37.12
2023-02-21T00:01:42.563Z,37.47
2023-02-21T00:02:14.014Z,37.88
2023-02-21T00:02:45.452Z,37.67
2023-02-21T00:03:16.863Z,37.42
2023-02-21T00:03:48.279Z,37.39
2023-02-21T00:04:19.701Z,37.83
2023-02-21T00:04:51.100Z,37.82
2023-02-21T00:05:22.561Z,37.63
2023-02-21T00:05:54.057Z,37.46
2023-02-21T00:06:25.508Z,37.54
2023-02-21T00:06:56.910Z,37.31
2023-02-21T00:07:28.305Z,37.72
2023-02-21T00:07:59.740Z,37.58
2023-02-21T00:08:31.256Z,37.65
2023-02-21T00:09:02.707Z,37.90
2023-02-21T00:09:34.147Z,37.80
2023-02-21T00:10:05.544Z,37.61
2023-02-21T00:10:36.974Z,38.05
2023-02-21T00:11:08.453Z,37.42
2023-02-21T00:11:39.852Z,37.98
2023-02-21T00:12:11.239Z,37.64
2023-02-21T00:12:42.647Z,37.48
2023-02-21T00:13:14.063Z,37.19
2023-02-21T00:13:45.503Z,37.50
2023-02-21T00:14:16.914Z,37.18
2023-02-21T00:14:48.352Z,37.09
2023-02-21T00:15:19.778Z,37.37
2023-02-21T00:15:51.179Z,37.69
2023-02-21T00:16:22.646Z,37.07
2023-02-21T00:16:54.047Z,37.28
2023-02-21T00:17:25.448Z,37.92
2023-02-21T00:17:56.843Z,37.28
2023-02-21T00:18:28.261Z,37.41
2023-02-21T00:18:59.688Z,37.06
2023-02-21T00:19:31.109Z,37.57
2023-02-21T00:20:02.530Z,37.09
2023-02-21T00:20:33.976Z,37.35
2023-02-21T00:21:05.367Z,37.31
2023-02-21T00:21:36.808Z,37.24
2023-02-21T00:22:08.203Z,37.17
2023-02-21T00:22:39.623Z,37.39
2023-02-21T00:23:11.011Z,37.11
2023-02-21T00:23:42.414Z,37.09
2023-02-21T00:24:13.829Z,37.32
2023-02-21T00:24:45.264Z,37.58
2023-02-21T00:25:16.672Z,37.26
2023-02-21T00:25:48.072Z,37.23
2023-02-21T00:26:19.478Z,37.03
2023-02-21T00:26:50.911Z,37.33
2023-02-21T00:27:22.311Z,37.45
2023-02-21T00:27:53.726Z,37.68
2023-02-21T00:28:25.145Z,37.58
2023-02-21T00:28:56.566Z,37.21
2023-02-21T00:29:27.957Z,37.00
2023-02-21T00:29:59.388Z,37.39
2023-02-21T00:30:30.952Z,37.34
2023-02-21T00:31:02.423Z,37.91
2023-02-21T00:31:33.917Z,37.55
2023-02-21T00:32:05.355Z,37.31
2023-02-21T00:32:36.810Z,37.57
2023-02-21T00:33:08.546Z,37.28
2023-02-21T00:33:40.016Z,37.43
2023-02-21T00:34:11.416Z,37.08
2023-02-21T00:34:42.811Z,37.00
2023-02-21T00:35:14.270Z,37.56
2023-02-21T00:35:45.704Z,37.08
2023-02-21T00:36:17.117Z,36.91
2023-02-21T00:36:48.529Z,37.05
2023-02-21T00:37:19.939Z,37.31
2023-02-21T00:37:51.330Z,37.04
2023-02-21T00:38:24.375Z,37.33
2023-02-21T00:38:56.915Z,37.12
2023-02-21T00:39:28.307Z,37.50
2023-02-21T00:39:59.711Z,37.32
2023-02-21T00:40:31.145Z,37.46
2023-02-21T00:41:02.534Z,37.12
2023-02-21T00:41:33.951Z,37.39
2023-02-21T00:42:05.365Z,37.54
2023-02-21T00:42:36.828Z,37.07
2023-02-21T00:43:08.230Z,37.18
2023-02-21T00:43:39.623Z,37.16
2023-02-21T00:44:11.022Z,37.07
2023-02-21T00:44:42.419Z,37.23
2023-02-21T00:45:13.847Z,37.03
2023-02-21T00:45:45.301Z,36.88
2023-02-21T00:46:16.787Z,37.30
2023-02-21T00:46:48.259Z,36.99
2023-02-21T00:47:19.680Z,37.32
2023-02-21T00:47:51.124Z,37.19
2023-02-21T00:48:22.520Z,37.45
2023-02-21T00:48:53.914Z,37.08
2023-02-21T00:49:25.310Z,36.86
2023-02-21T00:49:56.699Z,37.18
2023-02-21T00:50:28.102Z,36.86
2023-02-21T00:50:59.506Z,37.01
2023-02-21T00:51:30.910Z,37.11
2023-02-21T00:52:02.328Z,37.00
2023-02-21T00:52:33.752Z,37.42
2023-02-21T00:53:05.197Z,37.30
2023-02-21T00:53:36.585Z,36.86
2023-02-21T00:54:07.995Z,37.49
2023-02-21T00:54:39.395Z,37.29
2023-02-21T00:55:10.800Z,37.57
2023-02-21T00:55:42.215Z,37.16
2023-02-21T00:56:13.634Z,36.89
2023-02-21T00:56:45.025Z,37.13
2023-02-21T00:57:16.441Z,36.97
2023-02-21T00:57:47.890Z,37.17
2023-02-21T00:58:19.372Z,37.20
2023-02-21T00:58:50.762Z,37.57
2023-02-21T00:59:22.179Z,37.27
2023-02-21T00:59:53.572Z,37.06
2023-02-21T01:00:24.970Z,37.21
2023-02-21T01:00:56.438Z,37.47
2023-02-21T01:01:27.917Z,37.21
2023-02-21T01:01:59.316Z,37.52
2023-02-21T01:02:30.706Z,37.53
2023-02-21T01:03:02.120Z,37.26
2023-02-21T01:03:33.545Z,36.86
2023-02-21T01:04:04.980Z,37.25
2023-02-21T01:04:36.458Z,37.32
2023-02-21T01:05:07.893Z,37.55
2023-02-21T01:05:39.310Z,37.31
2023-02-21T01:06:10.802Z,37.17
2023-02-21T01:06:42.209Z,37.02
2023-02-21T01:07:13.598Z,37.10
2023-02-21T01:07:45.016Z,37.09
2023-02-21T01:08:16.449Z,37.28
2023-02-21T01:08:47.881Z,37.31
2023-02-21T01:09:19.288Z,36.97
2023-02-21T01:09:50.679Z,37.41
2023-02-21T01:10:22.094Z,37.25
2023-02-21T01:10:53.507Z,37.26
2023-02-21T01:11:24.898Z,37.17
2023-02-21T01:11:56.299Z,37.36
2023-02-21T01:12:27.723Z,36.90
2023-02-21T01:12:59.145Z,37.47
2023-02-21T01:13:30.537Z,37.68
2023-02-21T01:14:01.933Z,37.30
2023-02-21T01:14:33.357Z,37.29
2023-02-21T01:15:04.769Z,37.08
2023-02-21T01:15:36.194Z,37.02
2023-02-21T01:16:07.716Z,36.99
2023-02-21T01:16:39.187Z,37.19
2023-02-21T01:17:13.409Z,37.07
2023-02-21T01:17:45.190Z,37.33
2023-02-21T01:18:16.602Z,36.84
2023-02-21T01:18:48.004Z,36.99
2023-02-21T01:19:19.432Z,37.19
2023-02-21T01:19:50.828Z,37.17
2023-02-21T01:20:22.246Z,37.53
2023-02-21T01:20:53.651Z,37.14
2023-02-21T01:21:25.077Z,37.19
2023-02-21T01:21:56.486Z,37.02
2023-02-21T01:22:27.878Z,36.94
2023-02-21T01:22:59.277Z,37.19
2023-02-21T01:23:30.674Z,37.07
2023-02-21T01:24:02.096Z,37.21
2023-02-21T01:24:33.562Z,37.19
2023-02-21T01:25:04.950Z,37.20
2023-02-21T01:25:36.390Z,36.89
2023-02-21T01:26:07.782Z,37.44
2023-02-21T01:26:39.176Z,37.20
2023-02-21T01:27:10.563Z,36.77
2023-02-21T01:27:41.987Z,37.51
2023-02-21T01:28:13.380Z,37.58
2023-02-21T01:28:44.785Z,37.13
2023-02-21T01:29:16.179Z,37.02
2023-02-21T01:29:47.625Z,37.21
2023-02-21T01:30:19.067Z,36.97
2023-02-21T01:30:50.596Z,37.13
2023-02-21T01:31:22.096Z,37.20
2023-02-21T01:31:53.527Z,37.44
2023-02-21T01:32:25.001Z,37.45
2023-02-21T01:32:56.424Z,37.49
2023-02-21T01:33:27.845Z,37.28
2023-02-21T01:33:59.266Z,37.52
2023-02-21T01:34:30.680Z,37.07
2023-02-21T01:35:02.123Z,37.40
2023-02-21T01:35:33.521Z,37.01
2023-02-21T01:36:04.948Z,37.63
2023-02-21T01:36:36.361Z,37.39
2023-02-21T01:37:07.774Z,37.33
2023-02-21T01:37:39.171Z,37.39
2023-02-21T01:38:10.566Z,37.18
2023-02-21T01:38:42.002Z,37.09
2023-02-21T01:39:13.398Z,37.18
2023-02-21T01:39:44.799Z,37.66
2023-02-21T01:40:16.231Z,37.04
2023-02-21T01:40:47.617Z,37.63
2023-02-21T01:41:19.036Z,37.37
2023-02-21T01:41:50.441Z,36.90
2023-02-21T01:42:21.876Z,37.43
2023-02-21T01:42:53.270Z,37.07
2023-02-21T01:43:24.711Z,37.63
2023-02-21T01:43:56.102Z,37.45
2023-02-21T01:44:27.504Z,37.43
2023-02-21T01:44:58.919Z,37.33
2023-02-21T01:45:30.379Z,37.55
2023-02-21T01:46:01.772Z,37.66
2023-02-21T01:46:33.193Z,37.05
2023-02-21T01:47:04.615Z,36.98
2023-02-21T01:47:36.029Z,37.62
2023-02-21T01:48:07.440Z,37.08
2023-02-21T01:48:38.844Z,37.21
2023-02-21T01:49:10.236Z,37.18
2023-02-21T01:49:41.627Z,37.57
2023-02-21T01:50:13.028Z,37.50
2023-02-21T01:50:44.447Z,37.50
2023-02-21T01:51:16.147Z,37.06
2023-02-21T01:51:47.755Z,37.04
2023-02-21T01:52:19.162Z,37.10
2023-02-21T01:52:50.619Z,36.95
2023-02-21T01:53:22.014Z,37.36
2023-02-21T01:53:53.479Z,37.26
2023-02-21T01:54:24.878Z,37.53
2023-02-21T01:54:56.285Z,37.25
2023-02-21T01:55:27.717Z,37.37
2023-02-21T01:55:59.173Z,37.41
2023-02-21T01:56:30.585Z,37.03
2023-02-21T01:57:01.979Z,37.31
2023-02-21T01:57:33.375Z,37.29
2023-02-21T01:58:04.864Z,37.18
2023-02-21T01:58:36.272Z,37.20
2023-02-21T01:59:07.682Z,37.67
2023-02-21T01:59:39.075Z,37.26
2023-02-21T02:00:10.465Z,37.28
2023-02-21T02:00:41.864Z,37.11
2023-02-21T02:01:13.478Z,37.04
2023-02-21T02:01:45.077Z,37.26
2023-02-21T02:02:16.510Z,37.33
2023-02-21T02:02:47.939Z,36.87
2023-02-21T02:03:19.416Z,37.04
2023-02-21T02:03:50.802Z,37.61
2023-02-21T02:04:22.213Z,37.53
2023-02-21T02:04:53.657Z,37.23
2023-02-21T02:05:25.102Z,37.15
2023-02-21T02:05:56.518Z,36.97
2023-02-21T02:06:27.973Z,37.37
2023-02-21T02:06:59.377Z,37.31
2023-02-21T02:07:30.794Z,37.64
2023-02-21T02:08:02.188Z,37.26
2023-02-21T02:08:33.584Z,37.77
2023-02-21T02:09:04.976Z,37.33
2023-02-21T02:09:36.393Z,37.47
2023-02-21T02:10:07.807Z,37.20
2023-02-21T02:10:39.201Z,37.39
2023-02-21T02:11:10.596Z,37.33
2023-02-21T02:11:42.040Z,37.58
2023-02-21T02:12:13.450Z,37.21
2023-02-21T02:12:44.862Z,36.98
2023-02-21T02:13:16.268Z,37.44
2023-02-21T02:13:47.679Z,36.99
2023-02-21T02:14:19.095Z,37.45
2023-02-21T02:14:50.504Z,37.16
2023-02-21T02:15:21.890Z,36.91
2023-02-21T02:15:53.314Z,37.24
2023-02-21T02:16:24.742Z,37.53
2023-02-21T02:16:56.160Z,37.41
2023-02-21T02:17:27.581Z,36.89
2023-02-21T02:17:58.993Z,37.26
2023-02-21T02:18:30.411Z,36.96
2023-02-21T02:19:01.826Z,37.54
2023-02-21T02:19:33.255Z,37.58
2023-02-21T02:20:04.699Z,37.45
2023-02-21T02:20:36.108Z,37.19
2023-02-21T02:21:07.519Z,37.63
2023-02-21T02:21:38.910Z,37.44
2023-02-21T02:22:10.438Z,36.94
2023-02-21T02:22:41.856Z,37.37
2023-02-21T02:23:13.270Z,37.08
2023-02-21T02:23:44.682Z,37.33
2023-02-21T02:24:16.108Z,37.43
2023-02-21T02:24:47.538Z,37.58
2023-02-21T02:25:18.945Z,36.88
2023-02-21T02:25:50.352Z,37.11
2023-02-21T02:26:21.807Z,36.82
2023-02-21T02:26:53.220Z,37.56
2023-02-21T02:27:24.663Z,36.96
2023-02-21T02:27:56.190Z,37.10
2023-02-21T02:28:27.619Z,37.22
2023-02-21T02:28:59.024Z,36.86
2023-02-21T02:29:30.466Z,37.07
2023-02-21T02:30:01.859Z,37.18
2023-02-21T02:30:33.330Z,37.05
2023-02-21T02:31:04.858Z,37.13
2023-02-21T02:31:36.411Z,37.35
2023-02-21T02:32:07.958Z,37.30
2023-02-21T02:32:39.447Z,36.99
2023-02-21T02:33:10.848Z,37.16
2023-02-21T02:33:42.238Z,37.40
2023-02-21T02:34:13.660Z,37.16
2023-02-21T02:34:45.107Z,36.81
2023-02-21T02:35:16.518Z,37.14
2023-02-21T02:35:47.940Z,37.06
2023-02-21T02:36:19.329Z,37.60
2023-02-21T02:36:50.732Z,37.19
2023-02-21T02:37:22.151Z,37.17
2023-02-21T02:37:53.572Z,37.08
2023-02-21T02:38:24.966Z,37.58
2023-02-21T02:38:56.351Z,36.93
2023-02-21T02:39:27.763Z,37.36
2023-02-21T02:39:59.202Z,37.20
2023-02-21T02:40:30.624Z,37.19
2023-02-21T02:41:02.019Z,37.06
2023-02-21T02:41:33.440Z,36.83
2023-02-21T02:42:04.845Z,37.03
2023-02-21T02:42:36.242Z,37.38
2023-02-21T02:43:07.692Z,36.90
2023-02-21T02:43:39.132Z,37.20
2023-02-21T02:44:10.524Z,37.15
2023-02-21T02:44:41.943Z,37.21
2023-02-21T02:45:13.386Z,36.87
2023-02-21T02:45:44.794Z,37.15
2023-02-21T02:46:16.209Z,37.65
2023-02-21T02:46:47.605Z,37.25
2023-02-21T02:47:19.014Z,37.40
2023-02-21T02:47:50.432Z,37.47
2023-02-21T02:48:21.889Z,37.22
2023-02-21T02:48:53.306Z,37.06
2023-02-21T02:49:24.708Z,37.30
2023-02-21T02:49:56.100Z,37.36
2023-02-21T02:50:27.498Z,37.40
2023-02-21T02:50:58.896Z,37.04
2023-02-21T02:51:30.305Z,37.07
2023-02-21T02:52:01.711Z,37.29
2023-02-21T02:52:33.110Z,36.98
2023-02-21T02:53:04.534Z,37.37
2023-02-21T02:53:35.988Z,37.15
2023-02-21T02:54:07.418Z,37.24
2023-02-21T02:54:38.930Z,37.54
2023-02-21T02:55:10.341Z,37.54
2023-02-21T02:55:41.735Z,36.94
2023-02-21T02:56:13.163Z,37.23
2023-02-21T02:56:44.576Z,37.11
2023-02-21T02:57:15.990Z,37.21
2023-02-21T02:57:47.396Z,37.25
2023-02-21T02:58:18.810Z,37.18
2023-02-21T02:58:50.281Z,37.51
2023-02-21T02:59:21.678Z,37.50
2023-02-21T02:59:53.075Z,36.95
2023-02-21T03:00:24.467Z,37.26
2023-02-21T03:00:55.878Z,36.99
2023-02-21T03:01:27.288Z,37.19
2023-02-21T03:01:58.756Z,37.18
2023-02-21T03:02:30.237Z,37.15
2023-02-21T03:03:01.624Z,37.49
2023-02-21T03:03:33.088Z,37.19
2023-02-21T03:04:04.571Z,37.01
2023-02-21T03:04:35.965Z,37.69
2023-02-21T03:05:07.379Z,37.12
2023-02-21T03:05:38.794Z,37.37
2023-02-21T03:06:10.217Z,37.17
2023-02-21T03:06:41.623Z,37.66
2023-02-21T03:07:13.027Z,37.06
2023-02-21T03:07:44.424Z,37.04
2023-02-21T03:08:15.827Z,37.33
2023-02-21T03:08:47.276Z,37.25
2023-02-21T03:09:18.728Z,37.25
2023-02-21T03:09:50.123Z,37.33
2023-02-21T03:10:21.543Z,37.65
2023-02-21T03:10:52.944Z,37.04
2023-02-21T03:11:24.369Z,37.34
2023-02-21T03:11:55.783Z,37.36
2023-02-21T03:12:27.193Z,37.37
2023-02-21T03:12:59.229Z,37.70
2023-02-21T03:13:31.874Z,37.53
2023-02-21T03:14:03.324Z,37.14
2023-02-21T03:14:34.746Z,37.36
2023-02-21T03:15:06.178Z,37.21
2023-02-21T03:15:37.604Z,37.62
2023-02-21T03:16:09.048Z,37.15
2023-02-21T03:16:40.509Z,37.41
2023-02-21T03:17:11.917Z,37.09
2023-02-21T03:17:43.341Z,37.05
2023-02-21T03:18:14.771Z,37.79
2023-02-21T03:18:46.191Z,37.68
2023-02-21T03:19:17.652Z,37.33
2023-02-21T03:19:49.088Z,37.54
2023-02-21T03:20:20.519Z,37.37
2023-02-21T03:20:51.921Z,37.23
2023-02-21T03:21:23.317Z,37.25
2023-02-21T03:21:54.727Z,37.46
2023-02-21T03:22:26.124Z,37.49
2023-02-21T03:22:57.530Z,37.34
2023-02-21T03:23:28.922Z,37.61
2023-02-21T03:24:00.353Z,37.55
2023-02-21T03:24:31.781Z,37.31
2023-02-21T03:25:03.182Z,37.54
2023-02-21T03:25:34.594Z,37.02
2023-02-21T03:26:06.006Z,37.71
2023-02-21T03:26:37.408Z,37.35
2023-02-21T03:27:08.814Z,37.65
2023-02-21T03:27:40.222Z,37.17
2023-02-21T03:28:11.633Z,37.08
2023-02-21T03:28:43.044Z,37.58
2023-02-21T03:29:14.436Z,37.81
2023-02-21T03:29:45.835Z,37.17
2023-02-21T03:30:17.331Z,37.43
2023-02-21T03:30:48.758Z,37.54
2023-02-21T03:31:20.460Z,37.07
2023-02-21T03:31:51.959Z,37.48
2023-02-21T03:32:23.471Z,37.72
2023-02-21T03:32:54.895Z,37.10
2023-02-21T03:33:26.310Z,37.53
2023-02-21T03:33:57.702Z,37.58
2023-02-21T03:34:29.097Z,37.26
2023-02-21T03:35:00.487Z,37.32
2023-02-21T03:35:31.928Z,37.41
2023-02-21T03:36:03.343Z,37.25
2023-02-21T03:36:34.752Z,37.40
2023-02-21T03:37:06.167Z,37.02
2023-02-21T03:37:37.721Z,37.32
2023-02-21T03:38:09.180Z,37.36
2023-02-21T03:38:40.587Z,37.45
2023-02-21T03:39:11.996Z,37.68
2023-02-21T03:39:43.396Z,37.41
2023-02-21T03:40:14.823Z,37.54
2023-02-21T03:40:46.289Z,37.53
2023-02-21T03:41:17.704Z,37.41
2023-02-21T03:41:49.094Z,37.50
2023-02-21T03:42:20.548Z,37.68
2023-02-21T03:42:51.961Z,37.34
2023-02-21T03:43:23.368Z,37.47
2023-02-21T03:43:54.761Z,37.39
2023-02-21T03:44:26.155Z,37.47
2023-02-21T03:44:57.567Z,38.04
2023-02-21T03:45:28.982Z,37.73
2023-02-21T03:46:00.456Z,37.42
2023-02-21T03:46:31.933Z,37.38
2023-02-21T03:47:03.348Z,37.63
2023-02-21T03:47:34.760Z,37.28
2023-02-21T03:48:06.161Z,37.63
2023-02-21T03:48:37.580Z,37.41
2023-02-21T03:49:08.972Z,37.47
2023-02-21T03:49:40.383Z,37.73
2023-02-21T03:50:11.770Z,37.05
2023-02-21T03:50:43.190Z,37.38
2023-02-21T03:51:14.977Z,37.55
2023-02-21T03:51:46.587Z,37.44
2023-02-21T03:52:17.982Z,37.33
2023-02-21T03:52:49.377Z,37.28
2023-02-21T03:53:20.823Z,37.58
2023-02-21T03:53:52.238Z,37.12
2023-02-21T03:54:23.636Z,37.07
2023-02-21T03:54:55.026Z,37.30
2023-02-21T03:55:26.418Z,37.35
2023-02-21T03:55:58.127Z,37.03
2023-02-21T03:56:41.273Z,37.30
2023-02-21T03:57:13.492Z,37.48
2023-02-21T03:57:44.889Z,37.48
2023-02-21T03:58:16.344Z,37.28
2023-02-21T03:58:47.823Z,37.64
2023-02-21T03:59:19.308Z,37.19
2023-02-21T03:59:50.756Z,37.62
2023-02-21T04:00:22.150Z,37.47
2023-02-21T04:00:53.574Z,37.40
2023-02-21T04:01:25.069Z,37.79
2023-02-21T04:01:56.583Z,37.21
2023-02-21T04:02:28.053Z,37.51
2023-02-21T04:02:59.440Z,37.31
2023-02-21T04:03:30.837Z,37.54
2023-02-21T04:04:02.268Z,37.49
2023-02-21T04:04:33.658Z,37.59
2023-02-21T04:05:05.074Z,37.40
2023-02-21T04:05:36.483Z,37.31
2023-02-21T04:06:07.894Z,37.10
2023-02-21T04:06:39.292Z,37.73
2023-02-21T04:07:10.687Z,37.48
2023-02-21T04:07:42.081Z,37.38
2023-02-21T04:08:13.507Z,37.50
2023-02-21T04:08:44.913Z,37.58
2023-02-21T04:09:16.341Z,37.63
2023-02-21T04:09:47.734Z,37.43
2023-02-21T04:10:19.145Z,37.29
2023-02-21T04:10:52.745Z,37.77
2023-02-21T04:11:24.314Z,37.48
2023-02-21T04:11:55.704Z,37.76
2023-02-21T04:12:27.135Z,37.41
2023-02-21T04:12:58.551Z,37.21
2023-02-21T04:13:29.959Z,37.25
2023-02-21T04:14:01.376Z,37.38
2023-02-21T04:14:32.788Z,37.53
2023-02-21T04:15:04.192Z,37.30
2023-02-21T04:15:35.619Z,37.41
2023-02-21T04:16:07.049Z,37.61
2023-02-21T04:16:38.488Z,37.69
2023-02-21T04:17:09.934Z,37.50
2023-02-21T04:17:41.383Z,37.55
2023-02-21T04:18:12.798Z,37.72
2023-02-21T04:18:44.201Z,37.67
2023-02-21T04:19:15.605Z,37.74
2023-02-21T04:19:47.008Z,37.42
2023-02-21T04:20:18.421Z,37.36
2023-02-21T04:20:49.836Z,37.55
2023-02-21T04:21:21.258Z,37.68
2023-02-21T04:21:52.661Z,37.46
2023-02-21T04:22:24.052Z,37.76
2023-02-21T04:23:03.205Z,37.33
2023-02-21T04:23:35.240Z,37.49
2023-02-21T04:24:06.662Z,37.89
2023-02-21T04:24:38.084Z,37.69
2023-02-21T04:25:09.478Z,37.67
2023-02-21T04:25:40.885Z,37.64
2023-02-21T04:26:12.299Z,37.86
2023-02-21T04:26:43.715Z,37.53
2023-02-21T04:27:15.146Z,37.62
2023-02-21T04:27:46.532Z,37.71
2023-02-21T04:28:17.983Z,37.34
2023-02-21T04:28:49.392Z,37.87
2023-02-21T04:29:20.817Z,37.68
2023-02-21T04:29:52.222Z,37.50
2023-02-21T04:30:23.654Z,37.72
2023-02-21T04:30:55.075Z,37.58
2023-02-21T04:31:26.491Z,37.49
2023-02-21T04:31:58.030Z,37.61
2023-02-21T04:32:29.587Z,37.95
2023-02-21T04:33:01.021Z,37.47
2023-02-21T04:33:32.467Z,37.46
2023-02-21T04:34:11.750Z,37.58
2023-02-21T04:34:43.528Z,37.60
2023-02-21T04:35:14.923Z,37.86
2023-02-21T04:35:46.318Z,38.07
2023-02-21T04:36:17.730Z,37.46
2023-02-21T04:36:49.154Z,37.48
2023-02-21T04:37:20.586Z,37.32
2023-02-21T04:37:51.978Z,37.62
2023-02-21T04:38:23.404Z,37.38
2023-02-21T04:38:54.853Z,37.54
2023-02-21T04:39:26.244Z,37.19
2023-02-21T04:39:57.652Z,37.81
2023-02-21T04:40:29.075Z,37.73
2023-02-21T04:41:00.469Z,37.73
2023-02-21T04:41:31.889Z,37.39
2023-02-21T04:42:03.278Z,37.31
2023-02-21T04:42:34.670Z,37.63
2023-02-21T04:43:06.101Z,37.57
2023-02-21T04:43:37.509Z,37.85
2023-02-21T04:44:08.938Z,37.51
2023-02-21T04:44:41.551Z,37.38
2023-02-21T04:45:14.259Z,37.58
2023-02-21T04:45:45.679Z,37.74
2023-02-21T04:46:17.106Z,37.50
2023-02-21T04:46:48.520Z,37.55
2023-02-21T04:47:19.912Z,37.71
2023-02-21T04:47:51.305Z,37.55
2023-02-21T04:48:22.715Z,37.43
2023-02-21T04:48:54.156Z,37.67
2023-02-21T04:49:25.583Z,37.75
2023-02-21T04:49:57.001Z,37.52
2023-02-21T04:50:28.398Z,37.49
2023-02-21T04:51:13.445Z,37.80
2023-02-21T04:51:46.081Z,37.95
2023-02-21T04:52:17.470Z,37.69
2023-02-21T04:52:48.863Z,37.94
2023-02-21T04:53:20.251Z,38.02
2023-02-21T04:53:51.691Z,37.74
2023-02-21T04:54:23.078Z,37.83
2023-02-21T04:54:54.514Z,37.66
2023-02-21T04:55:25.955Z,37.67
2023-02-21T04:55:57.366Z,37.54
2023-02-21T04:56:28.821Z,38.02
2023-02-21T04:57:00.290Z,37.89
2023-02-21T04:57:31.721Z,37.69
2023-02-21T04:58:03.153Z,37.88
2023-02-21T04:58:44.960Z,37.67
2023-02-21T04:59:17.183Z,37.99
2023-02-21T04:59:48.592Z,37.87
2023-02-21T05:00:20.068Z,37.79
2023-02-21T05:00:51.505Z,37.49
2023-02-21T05:01:22.948Z,37.68
2023-02-21T05:01:54.592Z,37.79
2023-02-21T05:02:25.991Z,37.87
2023-02-21T05:02:57.397Z,37.44
2023-02-21T05:03:28.807Z,37.42
2023-02-21T05:04:00.322Z,37.64
2023-02-21T05:04:31.879Z,37.75
2023-02-21T05:05:03.382Z,37.59
2023-02-21T05:05:34.853Z,37.23
2023-02-21T05:06:06.264Z,38.08
2023-02-21T05:06:37.699Z,37.58
2023-02-21T05:07:09.121Z,38.36
2023-02-21T05:07:40.535Z,37.99
2023-02-21T05:08:11.929Z,38.04
2023-02-21T05:08:43.349Z,37.75
2023-02-21T05:09:14.869Z,37.94
2023-02-21T05:09:46.289Z,37.89
2023-02-21T05:10:17.696Z,38.09
2023-02-21T05:10:49.148Z,37.88
2023-02-21T05:11:20.554Z,38.16
2023-02-21T05:11:51.947Z,37.79
2023-02-21T05:12:23.344Z,38.08
2023-02-21T05:12:54.755Z,37.85
2023-02-21T05:13:26.166Z,37.68
2023-02-21T05:13:57.581Z,37.92
2023-02-21T05:14:28.998Z,37.80
2023-02-21T05:15:00.409Z,37.76
2023-02-21T05:15:31.825Z,38.06
2023-02-21T05:16:03.282Z,37.90
2023-02-21T05:16:34.726Z,38.09
2023-02-21T05:17:06.143Z,37.93
2023-02-21T05:17:37.545Z,37.96
2023-02-21T05:18:08.981Z,37.54
2023-02-21T05:18:40.371Z,37.73
2023-02-21T05:19:11.802Z,37.60
2023-02-21T05:19:43.192Z,37.72
2023-02-21T05:20:14.601Z,38.04
2023-02-21T05:20:46.014Z,37.65
2023-02-21T05:21:17.437Z,37.92
2023-02-21T05:21:48.852Z,38.14
2023-02-21T05:22:20.272Z,37.56
2023-02-21T05:22:51.812Z,38.16
2023-02-21T05:23:23.370Z,38.02
2023-02-21T05:23:54.761Z,38.11
2023-02-21T05:24:26.202Z,38.37
2023-02-21T05:24:57.606Z,37.99
2023-02-21T05:25:29.019Z,38.00
2023-02-21T05:26:00.925Z,37.94
2023-02-21T05:26:32.367Z,38.07
2023-02-21T05:27:03.795Z,37.82
2023-02-21T05:27:35.186Z,37.99
2023-02-21T05:28:06.580Z,37.91
2023-02-21T05:28:37.976Z,37.94
2023-02-21T05:29:09.387Z,37.93
2023-02-21T05:29:40.838Z,37.63
2023-02-21T05:30:12.253Z,38.15
2023-02-21T05:30:43.750Z,37.70
2023-02-21T05:31:15.502Z,37.96
2023-02-21T05:31:47.286Z,37.76
2023-02-21T05:32:18.797Z,37.62
2023-02-21T05:32:50.247Z,37.60
2023-02-21T05:33:21.642Z,37.99
2023-02-21T05:33:53.267Z,37.61
2023-02-21T05:34:24.667Z,38.09
2023-02-21T05:34:56.110Z,37.69
2023-02-21T05:35:27.506Z,37.87
2023-02-21T05:35:58.912Z,37.88
2023-02-21T05:36:30.335Z,37.92
2023-02-21T05:37:01.816Z,37.98
2023-02-21T05:37:33.214Z,38.11
2023-02-21T05:38:04.627Z,38.09
2023-02-21T05:38:36.042Z,38.17
2023-02-21T05:39:07.534Z,38.01
2023-02-21T05:39:38.965Z,37.88
2023-02-21T05:40:10.402Z,37.82
2023-02-21T05:40:41.828Z,37.84
2023-02-21T05:41:13.364Z,38.09
2023-02-21T05:41:44.898Z,38.23
2023-02-21T05:42:16.342Z,37.82
2023-02-21T05:42:47.754Z,37.91
2023-02-21T05:43:19.196Z,38.26
2023-02-21T05:43:50.633Z,37.69
2023-02-21T05:44:22.048Z,38.18
2023-02-21T05:44:53.438Z,37.73
2023-02-21T05:45:24.898Z,37.64
2023-02-21T05:45:56.354Z,37.62
2023-02-21T05:46:27.796Z,37.67
2023-02-21T05:46:59.219Z,37.87
2023-02-21T05:47:30.642Z,38.00
2023-02-21T05:48:02.031Z,37.88
2023-02-21T05:48:33.434Z,37.87
2023-02-21T05:49:04.827Z,37.56
2023-02-21T05:49:36.234Z,38.26
2023-02-21T05:50:07.653Z,37.85
2023-02-21T05:50:39.068Z,37.70
2023-02-21T05:51:10.459Z,37.73
2023-02-21T05:51:41.879Z,38.02
2023-02-21T05:52:13.301Z,37.87
2023-02-21T05:52:44.737Z,38.05
2023-02-21T05:53:16.153Z,38.17
2023-02-21T05:53:47.550Z,38.35
2023-02-21T05:54:18.967Z,38.00
2023-02-21T05:54:50.375Z,38.04
2023-02-21T05:55:21.767Z,38.19
2023-02-21T05:55:53.200Z,37.98
2023-02-21T05:56:24.598Z,38.06
2023-02-21T05:56:56.007Z,38.02
2023-02-21T05:57:27.417Z,37.69
2023-02-21T05:57:58.844Z,37.78
2023-02-21T05:58:30.252Z,38.28
2023-02-21T05:59:01.650Z,38.38
2023-02-21T05:59:33.043Z,38.28
2023-02-21T06:00:04.430Z,38.01
2023-02-21T06:00:35.837Z,37.74
2023-02-21T06:01:07.287Z,38.36
2023-02-21T06:01:38.681Z,38.14
2023-02-21T06:02:10.159Z,38.25
2023-02-21T06:02:41.588Z,38.15
2023-02-21T06:03:13.140Z,37.71
2023-02-21T06:03:44.599Z,37.98
2023-02-21T06:04:16.042Z,38.06
2023-02-21T06:04:47.455Z,38.32
2023-02-21T06:05:18.842Z,38.15
2023-02-21T06:05:50.264Z,37.93
2023-02-21T06:06:21.677Z,38.23
2023-02-21T06:06:53.088Z,38.30
2023-02-21T06:07:24.493Z,38.34
2023-02-21T06:07:56.022Z,38.41
2023-02-21T06:08:27.466Z,37.95
2023-02-21T06:08:58.876Z,38.24
2023-02-21T06:09:30.274Z,37.85
2023-02-21T06:10:01.697Z,38.07
2023-02-21T06:10:33.091Z,38.29
2023-02-21T06:11:04.497Z,38.09
2023-02-21T06:11:35.906Z,38.13
2023-02-21T06:12:07.303Z,37.83
2023-02-21T06:12:38.704Z,38.11
2023-02-21T06:13:10.127Z,38.12
2023-02-21T06:13:41.554Z,38.12
2023-02-21T06:14:12.971Z,38.15
2023-02-21T06:14:44.384Z,37.79
2023-02-21T06:15:15.780Z,38.12
2023-02-21T06:15:47.193Z,38.11
2023-02-21T06:16:18.622Z,38.16
2023-02-21T06:16:50.058Z,38.23
2023-02-21T06:17:21.480Z,37.94
2023-02-21T06:17:52.877Z,38.06
2023-02-21T06:18:24.266Z,37.86
2023-02-21T06:18:55.706Z,37.69
2023-02-21T06:19:27.101Z,38.19
2023-02-21T06:19:58.512Z,37.84
2023-02-21T06:20:29.923Z,37.94
2023-02-21T06:21:01.319Z,38.41
2023-02-21T06:21:32.721Z,38.34
2023-02-21T06:22:04.112Z,38.32
2023-02-21T06:22:35.508Z,38.18
2023-02-21T06:23:06.895Z,38.34
2023-02-21T06:23:38.309Z,38.04
2023-02-21T06:24:09.763Z,38.12
2023-02-21T06:24:41.156Z,38.01
2023-02-21T06:25:12.577Z,38.62
2023-02-21T06:25:44.001Z,38.29
2023-02-21T06:26:15.408Z,38.15
2023-02-21T06:26:46.817Z,38.42
2023-02-21T06:27:18.207Z,38.28
2023-02-21T06:27:49.762Z,38.44
2023-02-21T06:28:21.218Z,38.37
2023-02-21T06:28:52.636Z,37.91
2023-02-21T06:29:24.061Z,37.99
2023-02-21T06:29:55.467Z,38.44
2023-02-21T06:30:27.286Z,38.08
2023-02-21T06:30:58.791Z,38.40
2023-02-21T06:31:30.657Z,37.94
2023-02-21T06:32:02.522Z,38.29
2023-02-21T06:32:34.334Z,37.89
2023-02-21T06:33:06.308Z,38.24
2023-02-21T06:33:38.188Z,38.00
2023-02-21T06:34:09.718Z,38.13
2023-02-21T06:34:41.240Z,38.40
2023-02-21T06:35:12.653Z,38.35
2023-02-21T06:35:44.062Z,38.13
2023-02-21T06:36:15.475Z,37.88
2023-02-21T06:36:46.894Z,38.16
2023-02-21T06:37:18.281Z,38.21
2023-02-21T06:37:49.672Z,38.41
2023-02-21T06:38:21.125Z,37.87
2023-02-21T06:38:52.530Z,38.22
2023-02-21T06:39:23.928Z,38.28
2023-02-21T06:39:55.358Z,38.11
2023-02-21T06:40:26.773Z,38.18
2023-02-21T06:40:58.174Z,38.29
2023-02-21T06:41:29.599Z,38.53
2023-02-21T06:42:01.050Z,37.95
2023-02-21T06:42:32.469Z,38.08
2023-02-21T06:43:03.874Z,38.56
2023-02-21T06:43:35.307Z,38.43
2023-02-21T06:44:06.704Z,38.31
2023-02-21T06:44:38.118Z,38.27
2023-02-21T06:45:09.530Z,38.35
2023-02-21T06:45:40.928Z,38.05